createdAt,value
2023-06-11T00:01:15.787Z,82.06
2023-06-11T00:04:04.157Z,82.64
2023-06-11T00:06:33.868Z,83.58
2023-06-11T00:09:02.291Z,83.79
2023-06-11T00:11:30.687Z,84.53
2023-06-11T00:13:59.079Z,85.07
2023-06-11T00:16:28.261Z,85.08
2023-06-11T00:18:56.675Z,85.72
2023-06-11T00:21:25.007Z,85.65
2023-06-11T00:23:53.511Z,86.03
2023-06-11T00:26:22.272Z,86.14
2023-06-11T00:28:50.851Z,86.05
2023-06-11T00:31:19.988Z,85.54
2023-06-11T00:33:48.449Z,85.43
2023-06-11T00:36:17.620Z,85.77
2023-06-11T00:38:47.467Z,86.23
2023-06-11T00:41:16.233Z,86.42
2023-06-11T00:43:44.602Z,85.99
2023-06-11T00:46:13.161Z,85.89
2023-06-11T00:48:41.748Z,85.99
2023-06-11T00:51:12.111Z,85.55
2023-06-11T00:53:40.645Z,85.86
2023-06-11T00:56:09.045Z,85.84
2023-06-11T00:58:37.570Z,85.75
2023-06-11T01:01:06.932Z,85.57
2023-06-11T01:03:36.191Z,85.34
2023-06-11T01:06:12.890Z,86.12
2023-06-11T01:08:42.427Z,86.73
2023-06-11T01:11:15.327Z,86.82
2023-06-11T01:13:48.129Z,86.98
2023-06-11T01:16:30.760Z,87.26
2023-06-11T01:19:18.480Z,87.76
2023-06-11T01:21:57.576Z,87.40
2023-06-11T01:24:54.709Z,86.91
2023-06-11T01:27:41.835Z,86.93
2023-06-11T01:30:18.698Z,86.80
2023-06-11T01:32:54.503Z,86.55
2023-06-11T01:35:28.529Z,86.72
2023-06-11T01:37:57.421Z,87.29
2023-06-11T01:40:32.747Z,87.82
2023-06-11T01:43:03.595Z,88.23
2023-06-11T01:45:34.544Z,88.27
2023-06-11T01:48:02.885Z,88.58
2023-06-11T01:50:32.385Z,88.71
2023-06-11T01:53:02.150Z,88.87
2023-06-11T01:55:31.389Z,88.80
2023-06-11T01:58:00.849Z,89.16
2023-06-11T02:00:29.360Z,89.25
2023-06-11T02:02:58.202Z,89.15
2023-06-11T02:05:26.657Z,89.64
2023-06-11T02:07:55.130Z,89.92
2023-06-11T02:10:23.835Z,90.08
2023-06-11T02:12:52.249Z,90.56
2023-06-11T02:15:21.793Z,90.71
2023-06-11T02:17:50.326Z,91.02
2023-06-11T02:20:19.173Z,91.27
2023-06-11T02:22:47.606Z,91.39
2023-06-11T02:25:17.141Z,91.65
2023-06-11T02:27:45.669Z,91.85
2023-06-11T02:30:14.534Z,92.04
2023-06-11T02:32:45.821Z,92.21
2023-06-11T02:35:14.618Z,92.43
2023-06-11T02:37:43.383Z,92.73
2023-06-11T02:40:12.518Z,92.77
2023-06-11T02:42:41.044Z,92.46
2023-06-11T02:45:10.139Z,92.11
2023-06-11T02:47:38.896Z,91.44
2023-06-11T02:50:07.936Z,91.15
2023-06-11T02:52:36.271Z,90.87
2023-06-11T02:55:05.152Z,90.49
2023-06-11T02:57:33.546Z,90.36
2023-06-11T03:00:02.179Z,90.68
2023-06-11T03:02:30.757Z,91.19
2023-06-11T03:04:59.171Z,91.19
2023-06-11T03:07:27.717Z,90.89
2023-06-11T03:09:56.082Z,90.56
2023-06-11T03:12:24.486Z,90.77
2023-06-11T03:14:52.854Z,90.29
2023-06-11T03:17:21.289Z,90.21
2023-06-11T03:19:49.763Z,90.30
2023-06-11T03:22:18.838Z,90.25
2023-06-11T03:24:47.393Z,90.08
2023-06-11T03:27:25.994Z,89.97
2023-06-11T03:29:54.398Z,89.77
2023-06-11T03:32:23.806Z,89.57
2023-06-11T03:34:52.693Z,89.53
2023-06-11T03:37:22.568Z,89.79
2023-06-11T03:39:53.786Z,89.83
2023-06-11T03:42:22.229Z,90.05
2023-06-11T03:44:51.481Z,90.17
2023-06-11T03:47:20.280Z,89.86
2023-06-11T03:49:50.600Z,89.60
2023-06-11T03:52:20.200Z,89.41
2023-06-11T03:54:48.654Z,89.21
2023-06-11T03:57:19.179Z,88.94
2023-06-11T03:59:47.630Z,88.47
2023-06-11T04:02:16.215Z,88.07
2023-06-11T04:04:44.890Z,87.93
2023-06-11T04:07:13.348Z,87.83
2023-06-11T04:09:42.336Z,87.88
2023-06-11T04:12:11.338Z,87.80
2023-06-11T04:14:40.089Z,87.71
2023-06-11T04:17:09.383Z,87.58
2023-06-11T04:19:38.894Z,87.37
2023-06-11T04:22:08.651Z,86.99
2023-06-11T04:24:37.301Z,86.39
2023-06-11T04:27:08.331Z,85.65
2023-06-11T04:29:38.283Z,85.43
2023-06-11T04:32:08.407Z,84.95
2023-06-11T04:34:41.454Z,84.46
2023-06-11T04:37:10.777Z,83.52
2023-06-11T04:39:41.722Z,82.70
2023-06-11T04:42:10.235Z,82.40
2023-06-11T04:44:40.130Z,82.43
2023-06-11T04:47:09.635Z,82.40
2023-06-11T04:49:42.098Z,81.60
2023-06-11T04:52:11.503Z,80.99
2023-06-11T04:54:42.986Z,81.11
2023-06-11T04:57:15.037Z,80.29
2023-06-11T04:59:43.964Z,79.82
2023-06-11T05:02:12.804Z,79.23
2023-06-11T05:04:41.243Z,78.77
2023-06-11T05:07:10.797Z,78.47
2023-06-11T05:09:42.099Z,77.93
2023-06-11T05:12:13.606Z,78.00
2023-06-11T05:14:44.572Z,75.54
2023-06-11T05:17:13.933Z,74.79
2023-06-11T05:19:43.890Z,73.78
2023-06-11T05:22:13.465Z,74.51
2023-06-11T05:24:44.277Z,73.91
2023-06-11T05:27:13.086Z,73.42
2023-06-11T05:29:44.916Z,72.62
2023-06-11T05:32:16.562Z,71.80
2023-06-11T05:34:45.486Z,71.85
2023-06-11T05:37:16.036Z,72.11
2023-06-11T05:39:44.444Z,72.15
2023-06-11T05:42:12.884Z,71.43
2023-06-11T05:44:43.088Z,71.40
2023-06-11T05:47:12.273Z,70.56
2023-06-11T05:49:41.375Z,69.39
2023-06-11T05:52:10.569Z,68.21
2023-06-11T05:54:39.005Z,66.65
2023-06-11T05:57:24.810Z,65.71
2023-06-11T05:59:54.746Z,66.38
2023-06-11T06:02:24.563Z,66.60
2023-06-11T06:04:53.156Z,65.79
2023-06-11T06:07:21.715Z,65.34
2023-06-11T06:09:51.801Z,64.86
2023-06-11T06:12:20.226Z,64.21
2023-06-11T06:14:48.717Z,64.18
2023-06-11T06:17:17.216Z,63.12
2023-06-11T06:19:46.506Z,61.15
2023-06-11T06:22:17.108Z,61.11
2023-06-11T06:24:46.344Z,57.52
2023-06-11T06:27:15.487Z,59.00
2023-06-11T06:29:44.309Z,59.73
2023-06-11T06:32:13.017Z,58.99
2023-06-11T06:34:41.970Z,57.83
2023-06-11T06:37:13.165Z,58.39
2023-06-11T06:39:43.841Z,57.95
2023-06-11T06:42:12.264Z,55.27
2023-06-11T06:44:43.068Z,56.07
2023-06-11T06:47:11.716Z,55.58
2023-06-11T06:49:40.341Z,56.04
2023-06-11T06:52:10.831Z,55.24
2023-06-11T06:54:40.147Z,54.93
2023-06-11T06:57:08.764Z,54.13
2023-06-11T06:59:37.539Z,53.62
2023-06-11T07:02:09.804Z,52.43
2023-06-11T07:04:39.025Z,52.27
2023-06-11T07:07:07.569Z,52.14
2023-06-11T07:09:36.443Z,52.00
2023-06-11T07:12:06.450Z,52.94
2023-06-11T07:14:34.954Z,52.81
2023-06-11T07:17:04.473Z,52.44
2023-06-11T07:19:33.013Z,52.18
2023-06-11T07:22:02.428Z,52.13
2023-06-11T07:24:32.621Z,51.78
2023-06-11T07:27:01.717Z,50.09
2023-06-11T07:29:30.499Z,50.12
2023-06-11T07:31:59.261Z,50.98
2023-06-11T07:34:28.261Z,50.29
2023-06-11T07:36:56.702Z,49.30
2023-06-11T07:39:25.093Z,49.68
2023-06-11T07:41:53.676Z,47.43
2023-06-11T07:44:22.072Z,47.98
2023-06-11T07:46:50.948Z,49.52
2023-06-11T07:49:19.499Z,50.27
2023-06-11T07:51:48.282Z,50.21
2023-06-11T07:54:17.348Z,49.50
2023-06-11T07:56:48.068Z,49.55
2023-06-11T07:59:16.832Z,48.19
2023-06-11T08:01:45.286Z,47.49
2023-06-11T08:04:13.825Z,47.17
2023-06-11T08:06:42.288Z,47.41
2023-06-11T08:09:10.920Z,48.46
2023-06-11T08:11:42.737Z,49.19
2023-06-11T08:14:11.185Z,48.30
2023-06-11T08:16:39.596Z,45.76
2023-06-11T08:19:08.488Z,46.38
2023-06-11T08:21:37.078Z,45.58
2023-06-11T08:24:06.549Z,44.76
2023-06-11T08:26:35.370Z,45.91
2023-06-11T08:29:03.856Z,45.90
2023-06-11T08:31:33.015Z,45.56
2023-06-11T08:34:01.447Z,44.50
2023-06-11T08:36:29.970Z,45.74
2023-06-11T08:38:58.503Z,45.99
2023-06-11T08:41:30.445Z,45.68
2023-06-11T08:43:59.692Z,45.45
2023-06-11T08:46:35.199Z,44.20
2023-06-11T08:49:08.552Z,44.68
2023-06-11T08:51:39.076Z,45.08
2023-06-11T08:54:09.147Z,44.32
2023-06-11T08:56:37.618Z,45.11
2023-06-11T08:59:07.803Z,45.08
2023-06-11T09:01:36.216Z,44.07
2023-06-11T09:04:04.726Z,43.95
2023-06-11T09:06:35.723Z,41.85
2023-06-11T09:09:06.802Z,43.19
2023-06-11T09:11:39.335Z,43.19
2023-06-11T09:14:08.691Z,41.27
2023-06-11T09:16:48.085Z,42.61
2023-06-11T09:19:18.705Z,43.15
2023-06-11T09:21:52.813Z,42.32
2023-06-11T09:24:22.683Z,40.74
2023-06-11T09:26:56.813Z,40.26
2023-06-11T09:29:27.112Z,40.09
2023-06-11T09:32:19.537Z,40.16
2023-06-11T09:34:57.661Z,41.31
2023-06-11T09:37:26.691Z,39.84
2023-06-11T09:39:55.706Z,40.41
2023-06-11T09:42:28.342Z,41.06
2023-06-11T09:45:01.013Z,40.20
2023-06-11T09:47:32.861Z,40.52
2023-06-11T09:50:03.385Z,39.76
2023-06-11T09:52:33.963Z,40.01
2023-06-11T09:55:03.950Z,38.89
2023-06-11T09:57:33.218Z,39.80
2023-06-11T10:00:02.274Z,38.40
2023-06-11T10:02:33.449Z,39.44
2023-06-11T10:05:03.026Z,41.10
2023-06-11T10:07:33.232Z,40.67
2023-06-11T10:10:01.865Z,39.42
2023-06-11T10:12:35.915Z,40.98
2023-06-11T10:15:08.263Z,41.33
2023-06-11T10:17:37.018Z,42.60
2023-06-11T10:20:07.135Z,42.73
2023-06-11T10:22:35.723Z,42.48
2023-06-11T10:25:05.489Z,41.69
2023-06-11T10:27:39.313Z,40.68
2023-06-11T10:30:09.888Z,40.74
2023-06-11T10:32:51.619Z,39.89
2023-06-11T10:35:25.591Z,42.78
2023-06-11T10:38:04.300Z,43.76
2023-06-11T10:40:37.562Z,43.11
2023-06-11T10:43:22.192Z,41.66
2023-06-11T10:46:19.613Z,42.79
2023-06-11T10:48:55.945Z,43.53
2023-06-11T10:51:24.759Z,44.53
2023-06-11T10:53:58.866Z,44.11
2023-06-11T10:56:27.483Z,43.82
2023-06-11T10:58:56.927Z,43.73
2023-06-11T11:01:25.688Z,43.63
2023-06-11T11:03:54.721Z,42.77
2023-06-11T11:06:28.374Z,43.36
2023-06-11T11:08:58.010Z,43.36
2023-06-11T11:11:28.091Z,44.13
2023-06-11T11:14:01.391Z,44.80
2023-06-11T11:16:30.535Z,45.21
2023-06-11T11:18:58.980Z,45.05
2023-06-11T11:21:31.077Z,44.44
2023-06-11T11:24:00.913Z,43.97
2023-06-11T11:26:29.648Z,44.34
2023-06-11T11:28:58.237Z,44.42
2023-06-11T11:31:26.986Z,45.74
2023-06-11T11:33:56.401Z,46.58
2023-06-11T11:36:24.965Z,46.08
2023-06-11T11:38:53.406Z,45.69
2023-06-11T11:41:25.915Z,46.33
2023-06-11T11:43:54.628Z,45.54
2023-06-11T11:46:25.052Z,47.25
2023-06-11T11:48:59.235Z,47.34
2023-06-11T11:51:30.787Z,46.11
2023-06-11T11:54:01.493Z,45.79
2023-06-11T11:56:36.520Z,46.40
2023-06-11T11:59:04.956Z,46.50
2023-06-11T12:01:38.212Z,46.46
2023-06-11T12:04:07.811Z,47.05
2023-06-11T12:06:37.681Z,46.47
2023-06-11T12:09:06.903Z,46.33
2023-06-11T12:11:35.467Z,47.20
2023-06-11T12:14:03.949Z,47.03
2023-06-11T12:16:33.719Z,47.13
2023-06-11T12:19:18.521Z,47.77
2023-06-11T12:21:52.560Z,48.26
2023-06-11T12:24:21.023Z,48.85
2023-06-11T12:26:50.835Z,48.96
2023-06-11T12:29:20.633Z,48.54
2023-06-11T12:31:49.187Z,48.66
2023-06-11T12:34:17.953Z,48.74
2023-06-11T12:36:48.229Z,48.70
2023-06-11T12:39:16.578Z,48.57
2023-06-11T12:41:46.337Z,48.77
2023-06-11T12:44:15.009Z,48.23
2023-06-11T12:46:43.524Z,48.30
2023-06-11T12:49:11.999Z,48.26
2023-06-11T12:51:43.676Z,48.14
2023-06-11T12:54:15.832Z,48.78
2023-06-11T12:56:44.537Z,49.68
2023-06-11T12:59:13.073Z,50.04
2023-06-11T13:01:41.646Z,50.70
2023-06-11T13:04:10.556Z,50.22
2023-06-11T13:06:39.108Z,49.97
2023-06-11T13:09:07.617Z,48.64
2023-06-11T13:11:37.319Z,48.12
2023-06-11T13:14:06.217Z,48.29
2023-06-11T13:16:34.829Z,48.71
2023-06-11T13:19:04.058Z,49.57
2023-06-11T13:21:32.892Z,48.67
2023-06-11T13:24:01.404Z,49.03
2023-06-11T13:26:31.632Z,49.83
2023-06-11T13:29:00.010Z,50.26
2023-06-11T13:31:28.635Z,49.97
2023-06-11T13:33:57.233Z,50.13
2023-06-11T13:36:25.776Z,50.11
2023-06-11T13:38:54.250Z,50.35
2023-06-11T13:41:22.776Z,50.76
2023-06-11T13:43:51.238Z,50.65
2023-06-11T13:46:19.792Z,50.58
2023-06-11T13:48:50.559Z,50.35
2023-06-11T13:51:19.823Z,50.39
2023-06-11T13:53:48.807Z,50.12
2023-06-11T13:56:17.786Z,50.60
2023-06-11T13:58:46.208Z,50.93
2023-06-11T14:01:14.669Z,50.88
2023-06-11T14:03:43.251Z,51.14
2023-06-11T14:06:11.879Z,51.49
2023-06-11T14:08:40.372Z,51.85
2023-06-11T14:11:14.570Z,51.76
2023-06-11T14:13:43.200Z,51.72
2023-06-11T14:16:12.452Z,50.49
2023-06-11T14:18:40.926Z,50.45
2023-06-11T14:21:09.453Z,50.20
2023-06-11T14:23:37.932Z,50.08
2023-06-11T14:26:07.788Z,50.25
2023-06-11T14:28:37.390Z,50.38
2023-06-11T14:31:08.571Z,50.16
2023-06-11T14:33:37.518Z,50.07
2023-06-11T14:36:07.614Z,50.77
2023-06-11T14:38:36.264Z,50.18
2023-06-11T14:41:04.778Z,50.01
2023-06-11T14:43:33.248Z,49.41
2023-06-11T14:46:01.723Z,49.36
2023-06-11T14:48:30.066Z,49.78
2023-06-11T14:50:58.466Z,48.67
2023-06-11T14:53:26.876Z,48.47
2023-06-11T14:55:55.316Z,48.42
2023-06-11T14:58:23.680Z,48.74
2023-06-11T15:00:52.118Z,49.64
2023-06-11T15:03:21.176Z,49.63
2023-06-11T15:05:49.738Z,50.01
2023-06-11T15:08:18.247Z,48.99
2023-06-11T15:10:46.725Z,49.15
2023-06-11T15:13:18.297Z,49.75
2023-06-11T15:15:46.940Z,50.63
2023-06-11T15:18:15.508Z,51.19
2023-06-11T15:20:44.126Z,52.04
2023-06-11T15:23:15.458Z,53.18
2023-06-11T15:25:43.861Z,53.61
2023-06-11T15:28:12.452Z,54.07
2023-06-11T15:30:40.846Z,54.36
2023-06-11T15:33:09.338Z,55.26
2023-06-11T15:35:37.746Z,55.44
2023-06-11T15:38:06.355Z,55.77
2023-06-11T15:40:34.859Z,56.45
2023-06-11T15:43:03.294Z,56.54
2023-06-11T15:45:31.696Z,57.48
2023-06-11T15:48:00.185Z,57.87
2023-06-11T15:50:28.709Z,57.26
2023-06-11T15:52:57.162Z,57.37
2023-06-11T15:55:26.094Z,57.55
2023-06-11T15:57:57.626Z,57.47
2023-06-11T16:00:27.906Z,56.74
2023-06-11T16:02:56.273Z,56.90
2023-06-11T16:05:24.820Z,57.04
2023-06-11T16:07:53.209Z,56.88
2023-06-11T16:10:21.766Z,56.76
2023-06-11T16:12:50.216Z,56.73
2023-06-11T16:15:18.693Z,56.77
2023-06-11T16:17:48.141Z,56.86
2023-06-11T16:20:16.909Z,57.11
2023-06-11T16:22:45.344Z,57.36
2023-06-11T16:25:15.807Z,57.90
2023-06-11T16:27:44.742Z,58.49
2023-06-11T16:30:13.757Z,58.58
2023-06-11T16:32:43.774Z,58.84
2023-06-11T16:35:13.108Z,58.68
2023-06-11T16:37:41.950Z,59.24
2023-06-11T16:40:10.989Z,58.44
2023-06-11T16:42:39.533Z,58.70
2023-06-11T16:45:09.010Z,58.83
2023-06-11T16:47:37.679Z,58.12
2023-06-11T16:50:06.707Z,57.99
2023-06-11T16:52:36.787Z,57.89
2023-06-11T16:55:05.798Z,57.91
2023-06-11T16:57:34.200Z,57.97
2023-06-11T17:00:03.045Z,57.70
2023-06-11T17:02:33.404Z,57.53
2023-06-11T17:05:02.064Z,57.27
2023-06-11T17:07:30.582Z,57.75
2023-06-11T17:09:59.196Z,58.12
2023-06-11T17:12:27.716Z,58.30
2023-06-11T17:14:56.172Z,58.95
2023-06-11T17:17:24.591Z,59.95
2023-06-11T17:19:52.968Z,60.44
2023-06-11T17:22:21.359Z,61.95
2023-06-11T17:24:51.578Z,60.77
2023-06-11T17:27:20.404Z,61.69
2023-06-11T17:29:48.831Z,61.77
2023-06-11T17:32:17.331Z,62.00
2023-06-11T17:34:46.484Z,61.31
2023-06-11T17:37:15.914Z,61.47
2023-06-11T17:39:44.611Z,61.42
2023-06-11T17:42:13.221Z,61.47
2023-06-11T17:44:41.570Z,61.83
2023-06-11T17:47:09.995Z,62.02
2023-06-11T17:49:38.337Z,62.24
2023-06-11T17:52:06.950Z,62.79
2023-06-11T17:54:36.273Z,63.13
2023-06-11T17:57:05.379Z,63.39
2023-06-11T17:59:33.937Z,64.15
2023-06-11T18:02:02.519Z,64.09
2023-06-11T18:04:31.293Z,64.12
2023-06-11T18:06:59.706Z,63.78
2023-06-11T18:09:28.162Z,63.72
2023-06-11T18:11:57.042Z,63.56
2023-06-11T18:14:25.772Z,63.42
2023-06-11T18:16:55.844Z,63.82
2023-06-11T18:19:24.468Z,63.75
2023-06-11T18:21:52.922Z,63.94
2023-06-11T18:24:21.746Z,64.16
2023-06-11T18:26:50.184Z,64.54
2023-06-11T18:29:18.593Z,64.74
2023-06-11T18:31:47.056Z,64.78
2023-06-11T18:34:17.312Z,65.11
2023-06-11T18:36:46.479Z,65.12
2023-06-11T18:39:15.001Z,65.37
2023-06-11T18:41:43.451Z,65.80
2023-06-11T18:44:12.245Z,65.77
2023-06-11T18:46:45.483Z,66.21
2023-06-11T18:49:14.009Z,66.23
2023-06-11T18:51:42.385Z,66.81
2023-06-11T18:54:11.619Z,66.98
2023-06-11T18:56:39.993Z,67.01
2023-06-11T18:59:08.652Z,66.91
2023-06-11T19:01:37.158Z,67.07
2023-06-11T19:04:05.808Z,67.31
2023-06-11T19:06:34.254Z,67.35
2023-06-11T19:09:02.713Z,67.18
2023-06-11T19:11:31.191Z,67.54
2023-06-11T19:13:59.579Z,67.75
2023-06-11T19:16:28.041Z,67.65
2023-06-11T19:18:56.583Z,67.70
2023-06-11T19:21:26.270Z,67.70
2023-06-11T19:23:54.892Z,68.00
2023-06-11T19:26:23.384Z,69.05
2023-06-11T19:28:51.801Z,69.60
2023-06-11T19:31:20.251Z,69.26
2023-06-11T19:33:48.660Z,69.10
2023-06-11T19:36:17.083Z,69.83
2023-06-11T19:38:45.514Z,70.72
2023-06-11T19:41:15.778Z,71.11
2023-06-11T19:43:44.447Z,70.76
2023-06-11T19:46:12.999Z,70.27
2023-06-11T19:48:41.746Z,70.63
2023-06-11T19:51:12.020Z,70.65
2023-06-11T19:53:42.259Z,70.27
2023-06-11T19:56:14.331Z,70.10
2023-06-11T19:58:42.747Z,70.44
2023-06-11T20:01:11.154Z,71.02
2023-06-11T20:03:39.670Z,70.71
2023-06-11T20:06:08.149Z,70.93
2023-06-11T20:08:36.591Z,70.86
2023-06-11T20:11:12.544Z,71.07
2023-06-11T20:13:46.011Z,71.02
2023-06-11T20:16:14.833Z,71.18
2023-06-11T20:18:43.733Z,71.45
2023-06-11T20:21:12.233Z,71.51
2023-06-11T20:23:40.710Z,71.47
2023-06-11T20:26:09.110Z,71.83
2023-06-11T20:28:37.571Z,72.04
2023-06-11T20:31:05.973Z,72.14
2023-06-11T20:33:36.220Z,72.65
2023-06-11T20:36:04.823Z,73.56
2023-06-11T20:38:33.260Z,73.68
2023-06-11T20:41:01.735Z,73.30
2023-06-11T20:43:30.185Z,73.43
2023-06-11T20:46:01.037Z,73.31
2023-06-11T20:48:37.935Z,73.25
2023-06-11T20:51:11.385Z,73.83
2023-06-11T20:53:39.877Z,73.79
2023-06-11T20:56:08.256Z,73.78
2023-06-11T20:58:36.656Z,73.84
2023-06-11T21:01:05.158Z,73.99
2023-06-11T21:03:33.589Z,74.33
2023-06-11T21:06:04.559Z,74.17
2023-06-11T21:08:32.934Z,74.34
2023-06-11T21:11:01.889Z,74.36
2023-06-11T21:13:30.647Z,74.34
2023-06-11T21:15:59.077Z,74.74
2023-06-11T21:18:27.478Z,75.15
2023-06-11T21:20:55.920Z,75.55
2023-06-11T21:23:24.376Z,75.21
2023-06-11T21:25:52.716Z,75.76
2023-06-11T21:28:21.175Z,76.10
2023-06-11T21:30:49.667Z,76.08
2023-06-11T21:33:18.298Z,75.76
2023-06-11T21:35:51.170Z,75.76
2023-06-11T21:38:19.962Z,75.97
2023-06-11T21:40:48.457Z,75.96
2023-06-11T21:43:23.207Z,75.80
2023-06-11T21:45:51.631Z,75.46
2023-06-11T21:48:20.096Z,75.41
2023-06-11T21:50:48.557Z,75.50
2023-06-11T21:53:18.673Z,75.77
2023-06-11T21:55:46.996Z,75.86
2023-06-11T21:58:15.492Z,76.07
2023-06-11T22:00:43.939Z,75.98
2023-06-11T22:03:12.349Z,76.05
2023-06-11T22:05:40.767Z,76.13
2023-06-11T22:08:09.122Z,76.55
2023-06-11T22:10:37.500Z,77.08
2023-06-11T22:13:05.851Z,77.56
2023-06-11T22:15:34.169Z,77.36
2023-06-11T22:18:05.669Z,77.20
2023-06-11T22:20:36.806Z,77.63
2023-06-11T22:23:06.316Z,77.92
2023-06-11T22:25:34.729Z,77.74
2023-06-11T22:28:03.249Z,77.94
2023-06-11T22:30:38.039Z,77.96
2023-06-11T22:33:16.405Z,77.71
2023-06-11T22:35:45.526Z,77.37
2023-06-11T22:38:13.926Z,77.66
2023-06-11T22:40:42.275Z,77.84
2023-06-11T22:43:11.758Z,77.73
2023-06-11T22:45:40.197Z,77.48
2023-06-11T22:48:08.700Z,77.62
2023-06-11T22:50:38.149Z,77.74
2023-06-11T22:53:06.527Z,78.22
2023-06-11T22:55:35.034Z,78.16
2023-06-11T22:58:03.397Z,78.55
2023-06-11T23:00:31.787Z,78.47
2023-06-11T23:03:01.728Z,78.52
2023-06-11T23:05:30.337Z,78.73
2023-06-11T23:07:59.498Z,78.72
2023-06-11T23:10:28.064Z,78.66
2023-06-11T23:12:56.462Z,78.85
2023-06-11T23:15:24.855Z,78.73
2023-06-11T23:17:54.824Z,78.45
2023-06-11T23:20:28.829Z,78.68
2023-06-11T23:22:58.437Z,78.65
2023-06-11T23:25:28.030Z,78.66
2023-06-11T23:27:56.733Z,78.53
2023-06-11T23:30:25.124Z,78.51
2023-06-11T23:32:54.523Z,79.02
2023-06-11T23:35:22.895Z,79.56
2023-06-11T23:37:54.148Z,80.75
2023-06-11T23:40:22.517Z,80.40
2023-06-11T23:42:51.569Z,79.74
2023-06-11T23:45:19.935Z,80.46
2023-06-11T23:47:48.332Z,81.24
2023-06-11T23:50:16.975Z,81.31
2023-06-11T23:52:45.503Z,82.58
2023-06-11T23:55:15.388Z,82.22
2023-06-11T23:57:46.193Z,81.39
